Time;durP1;ratioP1;P1;durP2;ratioP2;P2;SDS_P1;SDS_P2;PMS_P1;PMS_P2;Temp;Humidity;BMP_temperature;BMP_pressure;BME280_temperature;BME280_humidity;BME280_pressure;Samples;Min_cycle;Max_cycle;Signal;HPM_P1;HPM_P2
2024/03/24 00:01:07;;;;;;;10.33;4.40;;;7.40;99.90;;;;;;5106616;27;20188;-67
2024/03/24 00:03:34;;;;;;;9.50;3.80;;;7.40;99.90;;;;;;5107579;28;20188;-65
2024/03/24 00:06:00;;;;;;;8.40;3.70;;;7.40;99.90;;;;;;5110100;28;20194;-67
2024/03/24 00:08:27;;;;;;;3.70;3.03;;;7.40;99.90;;;;;;5107627;28;20196;-67
2024/03/24 00:10:54;;;;;;;7.20;3.63;;;7.40;99.90;;;;;;5096440;28;20281;-66
2024/03/24 00:13:23;;;;;;;5.67;3.20;;;7.30;99.90;;;;;;5108566;28;20547;-66
2024/03/24 00:15:49;;;;;;;5.50;3.17;;;7.40;99.90;;;;;;5110746;28;20219;-67
2024/03/24 00:18:16;;;;;;;5.40;3.10;;;7.40;99.90;;;;;;5109904;28;20187;-65
2024/03/24 00:20:42;;;;;;;4.90;2.87;;;7.50;99.90;;;;;;5111027;28;20650;-66
2024/03/24 00:23:09;;;;;;;3.73;3.00;;;7.40;99.90;;;;;;5104746;28;20298;-66
2024/03/24 00:25:35;;;;;;;4.50;2.50;;;7.40;99.90;;;;;;5110963;28;20227;-66
2024/03/24 00:28:02;;;;;;;5.47;2.97;;;7.40;99.90;;;;;;5109844;28;20196;-66
2024/03/24 00:30:30;;;;;;;4.20;2.70;;;7.40;99.90;;;;;;5110748;28;20212;-66
2024/03/24 00:32:57;;;;;;;5.83;2.63;;;7.40;99.90;;;;;;5109527;28;20203;-66
2024/03/24 00:35:23;;;;;;;5.37;3.13;;;7.40;99.90;;;;;;5110377;28;20196;-66
2024/03/24 00:37:51;;;;;;;5.53;2.67;;;7.40;99.90;;;;;;5110149;28;20197;-66
2024/03/24 00:40:17;;;;;;;4.93;2.70;;;7.40;99.90;;;;;;5110725;28;20195;-66
2024/03/24 00:42:44;;;;;;;5.47;2.40;;;7.40;99.90;;;;;;5106713;28;20302;-66
2024/03/24 00:45:10;;;;;;;4.50;2.67;;;7.40;99.90;;;;;;5110857;28;20193;-66
2024/03/24 00:47:38;;;;;;;5.53;2.93;;;7.40;99.90;;;;;;5109752;28;20266;-66
2024/03/24 00:50:06;;;;;;;5.63;2.97;;;7.40;99.90;;;;;;5110589;28;20196;-66
2024/03/24 00:52:33;;;;;;;4.43;2.37;;;7.40;99.90;;;;;;5113907;28;20196;-67
2024/03/24 00:54:59;;;;;;;3.37;2.10;;;7.40;99.90;;;;;;5110455;28;20238;-66
2024/03/24 00:57:26;;;;;;;5.87;3.00;;;7.40;99.90;;;;;;5114627;28;20731;-67
2024/03/24 00:59:52;;;;;;;6.20;2.70;;;7.40;99.90;;;;;;5091829;28;20331;-67
2024/03/24 01:02:19;;;;;;;6.97;3.07;;;7.40;99.90;;;;;;5109738;28;20182;-67
2024/03/24 01:04:47;;;;;;;6.27;3.00;;;7.50;99.90;;;;;;5092383;28;20303;-67
2024/03/24 01:07:14;;;;;;;4.57;2.83;;;7.50;99.90;;;;;;5114158;28;20195;-67
2024/03/24 01:09:40;;;;;;;5.80;3.37;;;7.60;99.90;;;;;;5113823;28;20611;-67
2024/03/24 01:12:08;;;;;;;5.37;2.90;;;7.60;99.90;;;;;;5114356;28;20274;-68
2024/03/24 01:14:34;;;;;;;4.83;2.67;;;7.60;99.90;;;;;;5113781;28;20767;-68
2024/03/24 01:17:02;;;;;;;3.53;2.80;;;7.60;99.90;;;;;;5095031;28;20196;-67
2024/03/24 01:19:28;;;;;;;5.17;2.57;;;7.60;99.90;;;;;;5113837;28;20195;-67
2024/03/24 01:21:57;;;;;;;3.53;2.03;;;7.60;99.90;;;;;;5114323;28;20184;-67
2024/03/24 01:24:23;;;;;;;4.80;2.70;;;7.70;99.90;;;;;;5113603;28;20590;-67
2024/03/24 01:26:50;;;;;;;5.03;2.80;;;7.70;99.90;;;;;;5113934;28;20184;-67
2024/03/24 01:29:16;;;;;;;6.73;3.03;;;7.70;99.90;;;;;;5111648;28;20560;-67
2024/03/24 01:31:43;;;;;;;4.30;3.00;;;7.70;99.90;;;;;;5113324;28;20556;-67
2024/03/24 01:34:09;;;;;;;5.83;3.00;;;7.80;99.90;;;;;;5113269;28;20212;-68
2024/03/24 01:36:36;;;;;;;4.13;2.70;;;7.80;99.90;;;;;;5113869;28;20193;-66
2024/03/24 01:39:03;;;;;;;4.87;2.87;;;7.80;99.90;;;;;;5110114;28;20210;-66
2024/03/24 01:41:30;;;;;;;3.87;2.20;;;7.80;99.90;;;;;;5113740;28;20555;-67
2024/03/24 01:43:56;;;;;;;4.43;2.93;;;7.80;99.90;;;;;;5113367;28;20278;-65
2024/03/24 01:46:24;;;;;;;4.83;2.33;;;7.80;99.90;;;;;;5095125;28;20192;-66
2024/03/24 01:48:50;;;;;;;3.53;2.40;;;7.80;99.90;;;;;;5094570;28;20199;-66
2024/03/24 01:51:19;;;;;;;4.00;2.77;;;7.80;99.90;;;;;;5113808;28;20206;-66
2024/03/24 01:53:46;;;;;;;4.27;2.60;;;7.80;99.90;;;;;;5082779;28;20197;-66
2024/03/24 01:56:15;;;;;;;4.47;2.60;;;7.80;99.90;;;;;;5112787;28;20203;-66
2024/03/24 01:58:41;;;;;;;3.47;2.70;;;7.80;99.90;;;;;;5113095;28;20277;-66
2024/03/24 02:01:08;;;;;;;4.63;2.27;;;7.80;99.90;;;;;;5094676;28;20242;-66
2024/03/24 02:03:36;;;;;;;4.20;2.53;;;7.80;99.90;;;;;;5112622;28;20372;-66
2024/03/24 02:06:03;;;;;;;4.00;2.67;;;7.80;99.90;;;;;;5112877;28;20672;-66
2024/03/24 02:08:30;;;;;;;5.40;3.00;;;7.80;99.90;;;;;;5112814;28;20270;-66
2024/03/24 02:10:58;;;;;;;5.60;2.57;;;7.90;99.90;;;;;;5113709;28;20245;-65
2024/03/24 02:13:25;;;;;;;5.83;2.50;;;7.90;99.90;;;;;;5112641;28;20256;-66
2024/03/24 02:15:54;;;;;;;4.07;2.50;;;7.90;99.90;;;;;;5114085;27;20247;-65
2024/03/24 02:18:21;;;;;;;2.40;2.20;;;7.90;99.90;;;;;;5105514;28;20194;-66
2024/03/24 02:20:47;;;;;;;3.97;2.63;;;7.90;99.90;;;;;;5102901;28;20304;-65
2024/03/24 02:23:16;;;;;;;2.87;2.07;;;7.90;99.90;;;;;;5094238;28;20202;-66
2024/03/24 02:25:42;;;;;;;4.00;2.67;;;7.90;99.90;;;;;;5113451;28;20247;-66
2024/03/24 02:28:09;;;;;;;2.50;2.30;;;7.90;99.90;;;;;;5112614;28;20193;-65
2024/03/24 02:30:35;;;;;;;3.33;2.60;;;7.90;99.90;;;;;;5113678;28;20223;-65
2024/03/24 02:33:03;;;;;;;4.53;2.63;;;7.90;99.90;;;;;;5113005;28;20220;-67
2024/03/24 02:35:29;;;;;;;3.87;2.30;;;7.90;99.90;;;;;;5111810;28;20284;-65
2024/03/24 02:37:56;;;;;;;3.50;2.60;;;7.90;99.90;;;;;;5112787;28;20521;-66
2024/03/24 02:40:23;;;;;;;3.03;2.37;;;7.90;99.90;;;;;;5109770;28;20281;-65
2024/03/24 02:42:50;;;;;;;3.23;2.70;;;7.90;99.90;;;;;;5095520;28;20291;-66
2024/03/24 02:45:17;;;;;;;2.83;2.20;;;7.90;99.90;;;;;;5094867;28;20200;-66
2024/03/24 02:47:44;;;;;;;3.50;2.80;;;7.90;99.90;;;;;;5111897;28;20217;-66
2024/03/24 02:50:10;;;;;;;3.87;2.70;;;7.90;99.90;;;;;;5101623;28;20276;-66
2024/03/24 02:52:37;;;;;;;2.10;2.00;;;7.90;99.90;;;;;;5111467;28;20192;-66
2024/03/24 02:55:03;;;;;;;4.23;2.60;;;7.90;99.90;;;;;;5112807;28;20290;-66
2024/03/24 02:57:35;;;;;;;3.90;2.87;;;7.90;99.90;;;;;;5083957;28;20200;-67
2024/03/24 03:00:01;;;;;;;2.40;2.20;;;7.90;99.90;;;;;;5112616;28;20221;-67
2024/03/24 03:02:28;;;;;;;5.07;2.77;;;7.90;99.90;;;;;;5111847;28;20290;-67
2024/03/24 03:04:54;;;;;;;2.43;2.13;;;7.80;99.90;;;;;;5112288;28;20567;-67
2024/03/24 03:07:21;;;;;;;3.30;2.50;;;7.80;99.90;;;;;;5111889;28;20199;-67
2024/03/24 03:09:47;;;;;;;2.30;2.00;;;7.80;99.90;;;;;;5112085;28;20585;-66
2024/03/24 03:12:14;;;;;;;4.30;2.50;;;7.80;99.90;;;;;;5111491;28;20239;-66
2024/03/24 03:14:41;;;;;;;3.10;2.23;;;7.70;99.90;;;;;;5112342;28;20256;-67
2024/03/24 03:17:09;;;;;;;2.70;2.50;;;7.80;99.90;;;;;;5108220;28;20196;-67
2024/03/24 03:19:35;;;;;;;3.70;2.43;;;7.70;99.90;;;;;;5112501;28;20293;-67
2024/03/24 03:22:02;;;;;;;5.00;3.23;;;7.70;99.90;;;;;;5112358;28;20274;-67
2024/03/24 03:24:28;;;;;;;3.33;2.40;;;7.70;99.90;;;;;;5111522;28;20676;-67
2024/03/24 03:26:55;;;;;;;4.00;2.50;;;7.70;99.90;;;;;;5112161;28;20198;-68
2024/03/24 03:29:21;;;;;;;3.10;2.80;;;7.70;99.90;;;;;;5111354;28;20235;-67
2024/03/24 03:31:50;;;;;;;5.03;2.57;;;7.70;99.90;;;;;;5108065;28;20591;-67
2024/03/24 03:34:16;;;;;;;2.57;2.33;;;7.60;99.90;;;;;;5111384;28;20666;-67
2024/03/24 03:36:43;;;;;;;2.93;2.30;;;7.60;99.90;;;;;;5112283;28;20184;-67
2024/03/24 03:39:09;;;;;;;3.10;2.57;;;7.60;99.90;;;;;;5111136;28;20232;-67
2024/03/24 03:41:36;;;;;;;2.40;1.80;;;7.60;99.90;;;;;;5105674;28;20196;-67
2024/03/24 03:44:02;;;;;;;4.07;2.40;;;7.60;99.90;;;;;;5110563;28;20226;-66
2024/03/24 03:46:29;;;;;;;2.40;2.10;;;7.60;99.90;;;;;;5106031;28;20267;-66
2024/03/24 03:48:57;;;;;;;5.90;2.90;;;7.60;99.90;;;;;;5091208;28;20322;-66
2024/03/24 03:51:37;;;;;;;5.37;2.70;;;7.60;99.90;;;;;;5111182;28;20205;-67
2024/03/24 03:54:04;;;;;;;2.57;2.37;;;7.60;99.90;;;;;;5110815;28;20219;-66
2024/03/24 03:56:30;;;;;;;4.00;2.40;;;7.50;99.90;;;;;;5110971;28;20195;-67
2024/03/24 03:58:57;;;;;;;4.37;2.80;;;7.50;99.90;;;;;;5110558;28;20605;-66
2024/03/24 04:01:23;;;;;;;4.40;3.20;;;7.50;99.90;;;;;;5111073;28;20275;-66
2024/03/24 04:03:50;;;;;;;5.20;3.20;;;7.50;99.90;;;;;;5110416;28;20685;-67
2024/03/24 04:06:18;;;;;;;6.10;3.30;;;7.50;99.90;;;;;;5111276;28;20192;-66
2024/03/24 04:08:45;;;;;;;5.60;3.47;;;7.50;99.90;;;;;;5110081;28;20303;-67
2024/03/24 04:11:12;;;;;;;3.53;2.90;;;7.50;99.90;;;;;;5109180;28;20203;-67
2024/03/24 04:13:39;;;;;;;4.80;2.80;;;7.50;99.90;;;;;;5115347;27;20236;-67
2024/03/24 04:16:05;;;;;;;3.90;2.70;;;7.50;99.90;;;;;;5088464;28;20785;-66
2024/03/24 04:18:32;;;;;;;5.27;2.73;;;7.50;99.90;;;;;;5088306;28;20193;-67
2024/03/24 04:21:01;;;;;;;3.47;2.53;;;7.50;99.90;;;;;;5089330;28;20768;-66
2024/03/24 04:23:30;;;;;;;4.43;2.70;;;7.50;99.90;;;;;;5091511;28;20193;-66
2024/03/24 04:25:56;;;;;;;4.37;2.40;;;7.50;99.90;;;;;;5090869;28;20204;-66
2024/03/24 04:28:23;;;;;;;2.90;2.37;;;7.50;99.90;;;;;;5089607;28;20188;-67
2024/03/24 04:30:49;;;;;;;4.63;2.80;;;7.50;99.90;;;;;;5096592;28;20571;-67
2024/03/24 04:33:16;;;;;;;5.47;2.63;;;7.60;99.90;;;;;;5089298;28;20591;-66
2024/03/24 04:35:42;;;;;;;3.27;2.10;;;7.60;99.90;;;;;;5090144;28;20303;-66
2024/03/24 04:38:10;;;;;;;2.60;2.00;;;7.60;99.90;;;;;;5089164;28;20263;-66
2024/03/24 04:40:38;;;;;;;6.80;2.90;;;7.60;99.90;;;;;;5088821;28;20227;-66
2024/03/24 04:43:07;;;;;;;4.63;2.63;;;7.70;99.90;;;;;;5086334;28;20192;-67
2024/03/24 04:45:34;;;;;;;4.60;2.37;;;7.70;99.90;;;;;;5089043;28;20200;-66
2024/03/24 04:48:02;;;;;;;5.13;2.67;;;7.70;99.90;;;;;;5088158;28;20216;-66
2024/03/24 04:50:29;;;;;;;6.40;2.60;;;7.80;99.90;;;;;;5088980;28;20224;-66
2024/03/24 04:52:57;;;;;;;7.07;2.50;;;7.80;99.90;;;;;;5085678;28;20683;-66
2024/03/24 04:55:23;;;;;;;4.23;2.20;;;7.80;99.90;;;;;;5080684;28;20293;-66
2024/03/24 04:57:51;;;;;;;5.10;2.57;;;7.80;99.90;;;;;;5085887;28;20223;-66
2024/03/24 05:00:18;;;;;;;2.30;2.10;;;7.80;99.90;;;;;;5090850;28;20192;-65
2024/03/24 05:02:46;;;;;;;2.67;2.00;;;7.80;99.90;;;;;;5080869;28;20191;-66
2024/03/24 05:05:13;;;;;;;1.77;1.60;;;7.80;99.90;;;;;;5088926;28;20192;-66
2024/03/24 05:07:40;;;;;;;1.60;1.50;;;7.80;99.90;;;;;;5090100;28;20184;-66
2024/03/24 05:10:07;;;;;;;4.07;2.43;;;7.70;99.90;;;;;;5088028;28;20196;-66
2024/03/24 05:12:33;;;;;;;3.37;2.50;;;7.70;99.90;;;;;;5089125;28;20209;-66
2024/03/24 05:15:01;;;;;;;4.00;2.33;;;7.70;99.90;;;;;;5094736;28;20582;-66
2024/03/24 05:17:29;;;;;;;3.20;2.27;;;7.70;99.90;;;;;;5109580;28;20298;-66
2024/03/24 05:19:55;;;;;;;2.50;2.20;;;7.70;99.90;;;;;;5110411;28;20286;-66
2024/03/24 05:22:22;;;;;;;3.23;2.63;;;7.70;99.90;;;;;;5108525;28;20524;-66
2024/03/24 05:24:49;;;;;;;4.83;2.57;;;7.70;99.90;;;;;;5108230;28;20295;-66
2024/03/24 05:27:16;;;;;;;4.57;2.20;;;7.70;99.90;;;;;;5090045;28;20193;-66
2024/03/24 05:29:42;;;;;;;2.83;2.43;;;7.70;99.90;;;;;;5107732;28;20198;-66
2024/03/24 05:32:13;;;;;;;2.60;2.00;;;7.70;99.90;;;;;;5109628;28;20209;-66
2024/03/24 05:34:41;;;;;;;2.00;1.90;;;7.70;99.90;;;;;;5110393;28;20297;-66
2024/03/24 05:37:08;;;;;;;6.33;2.03;;;7.70;99.90;;;;;;5103288;28;20192;-66
2024/03/24 05:39:35;;;;;;;3.47;2.07;;;7.80;99.90;;;;;;5110397;28;20201;-67
2024/03/24 05:42:02;;;;;;;4.33;1.90;;;7.80;99.90;;;;;;5110819;28;20184;-67
2024/03/24 05:44:29;;;;;;;2.47;1.90;;;7.80;99.90;;;;;;5109242;28;20193;-66
2024/03/24 05:46:56;;;;;;;2.97;2.23;;;7.80;99.90;;;;;;5109584;28;20708;-66
2024/03/24 05:49:24;;;;;;;2.20;2.00;;;7.90;99.90;;;;;;5109681;28;20188;-66
2024/03/24 05:51:52;;;;;;;2.67;1.80;;;7.90;99.90;;;;;;5110609;28;20547;-67
2024/03/24 05:54:18;;;;;;;2.63;2.20;;;7.90;99.90;;;;;;5111722;28;20608;-66
2024/03/24 05:56:45;;;;;;;1.73;1.63;;;7.90;99.90;;;;;;5113567;28;20193;-66
2024/03/24 05:59:11;;;;;;;2.43;1.90;;;7.90;99.90;;;;;;5093076;28;20827;-67
2024/03/24 06:01:38;;;;;;;3.77;2.10;;;7.90;99.90;;;;;;5112839;28;20185;-67
2024/03/24 06:04:04;;;;;;;2.87;1.83;;;7.90;99.90;;;;;;5121136;27;20232;-66
2024/03/24 06:06:32;;;;;;;2.87;1.90;;;7.90;99.90;;;;;;5095144;28;20212;-66
2024/03/24 06:08:59;;;;;;;2.13;1.93;;;7.90;99.90;;;;;;5109866;28;20274;-67
2024/03/24 06:11:26;;;;;;;2.00;1.90;;;7.90;99.90;;;;;;5117916;27;20222;-66
2024/03/24 06:13:52;;;;;;;3.60;2.53;;;7.90;99.90;;;;;;5112695;28;20218;-66
2024/03/24 06:16:19;;;;;;;3.47;2.10;;;8.00;99.90;;;;;;5112055;28;20655;-66
2024/03/24 06:18:45;;;;;;;2.40;1.90;;;7.90;99.90;;;;;;5108710;28;20888;-65
2024/03/24 06:21:12;;;;;;;2.07;1.87;;;8.00;99.90;;;;;;5111233;28;20247;-66
2024/03/24 06:23:39;;;;;;;3.67;1.83;;;8.00;99.90;;;;;;5109489;28;20242;-67
2024/03/24 06:26:07;;;;;;;1.73;1.50;;;8.00;99.90;;;;;;5094769;28;20197;-66
2024/03/24 06:28:33;;;;;;;3.20;2.50;;;8.00;99.90;;;;;;5100481;27;20197;-66
2024/03/24 06:31:00;;;;;;;3.23;2.93;;;8.00;99.90;;;;;;5093661;28;20179;-66
2024/03/24 06:33:26;;;;;;;4.20;2.87;;;8.00;99.90;;;;;;5112397;28;20607;-66
2024/03/24 06:35:53;;;;;;;3.47;2.60;;;8.00;99.90;;;;;;5094291;28;20226;-66
2024/03/24 06:38:19;;;;;;;3.07;2.37;;;8.00;99.90;;;;;;5112384;28;20192;-66
2024/03/24 06:40:47;;;;;;;3.30;2.27;;;8.00;99.90;;;;;;5112549;28;20662;-65
2024/03/24 06:43:20;;;;;;;6.40;2.53;;;8.10;99.90;;;;;;5111549;28;20195;-66
2024/03/24 06:45:48;;;;;;;2.57;2.20;;;8.00;99.90;;;;;;5121412;27;20198;-68
2024/03/24 06:48:15;;;;;;;4.70;2.30;;;8.00;99.90;;;;;;5088881;28;20197;-65
2024/03/24 06:50:42;;;;;;;2.47;1.90;;;8.00;99.90;;;;;;5112604;28;20210;-66
2024/03/24 06:53:08;;;;;;;5.10;2.23;;;8.10;99.90;;;;;;5112165;28;20757;-66
2024/03/24 06:55:35;;;;;;;3.10;2.20;;;8.10;99.90;;;;;;5112593;28;20657;-66
2024/03/24 06:58:03;;;;;;;5.40;2.30;;;8.20;99.90;;;;;;5112022;28;20284;-66
2024/03/24 07:00:30;;;;;;;2.70;2.20;;;8.30;99.90;;;;;;5112716;28;20237;-66
2024/03/24 07:02:56;;;;;;;5.67;2.63;;;8.40;99.90;;;;;;5088294;28;20224;-66
2024/03/24 07:05:23;;;;;;;5.73;2.60;;;8.50;99.90;;;;;;5091652;28;20280;-66
2024/03/24 07:07:49;;;;;;;5.33;2.77;;;8.50;99.90;;;;;;5094441;28;20387;-66
2024/03/24 07:10:16;;;;;;;6.20;2.80;;;8.50;99.90;;;;;;5113015;28;20182;-66
2024/03/24 07:12:42;;;;;;;4.53;2.60;;;8.60;99.90;;;;;;5111530;28;20212;-66
2024/03/24 07:15:11;;;;;;;2.53;2.10;;;8.60;99.90;;;;;;5113575;28;20334;-66
2024/03/24 07:17:37;;;;;;;4.67;2.10;;;8.60;99.90;;;;;;5111146;27;20258;-67
2024/03/24 07:20:05;;;;;;;5.23;2.10;;;8.70;99.90;;;;;;5113243;28;20194;-67
2024/03/24 07:22:31;;;;;;;6.50;2.73;;;8.70;99.90;;;;;;5113185;28;20209;-67
2024/03/24 07:24:58;;;;;;;8.43;2.43;;;8.70;99.90;;;;;;5111685;28;20514;-67
2024/03/24 07:27:24;;;;;;;5.00;2.43;;;8.70;99.90;;;;;;5106932;28;20652;-67
2024/03/24 07:29:51;;;;;;;7.80;2.80;;;8.70;99.90;;;;;;5127660;27;20206;-67
2024/03/24 07:32:19;;;;;;;3.30;2.33;;;8.70;99.90;;;;;;5111799;28;20221;-67
2024/03/24 07:34:46;;;;;;;5.63;2.73;;;8.70;99.90;;;;;;5110721;27;20206;-67
2024/03/24 07:37:13;;;;;;;3.77;2.10;;;8.80;99.90;;;;;;5111850;28;20304;-66
2024/03/24 07:39:42;;;;;;;3.60;2.37;;;8.90;99.90;;;;;;5111341;28;20205;-67
2024/03/24 07:42:09;;;;;;;7.30;2.60;;;9.00;99.90;;;;;;5110303;28;20277;-65
2024/03/24 07:44:36;;;;;;;4.20;2.50;;;9.20;99.90;;;;;;5108289;28;20199;-66
2024/03/24 07:47:04;;;;;;;5.33;2.47;;;9.20;99.90;;;;;;5108079;28;20198;-68
2024/03/24 07:49:33;;;;;;;4.10;2.17;;;9.30;99.90;;;;;;5111657;28;20243;-67
2024/03/24 07:51:59;;;;;;;6.13;2.90;;;9.30;99.90;;;;;;5107020;27;20214;-67
2024/03/24 07:54:26;;;;;;;6.87;2.20;;;9.40;99.90;;;;;;5093114;28;20203;-67
2024/03/24 07:56:52;;;;;;;3.63;2.50;;;9.50;99.90;;;;;;5106441;28;20265;-68
2024/03/24 07:59:19;;;;;;;3.57;2.43;;;9.70;99.90;;;;;;5114933;27;20282;-67
2024/03/24 08:01:45;;;;;;;6.17;2.93;;;9.80;99.90;;;;;;5112135;27;20217;-68
2024/03/24 08:04:14;;;;;;;5.67;2.20;;;9.90;99.90;;;;;;5106000;28;20191;-67
2024/03/24 08:06:43;;;;;;;4.60;2.33;;;10.00;99.90;;;;;;5108955;28;20194;-66
2024/03/24 08:09:11;;;;;;;5.27;2.17;;;10.10;99.90;;;;;;5110929;28;20211;-66
2024/03/24 08:11:37;;;;;;;5.67;2.27;;;10.30;99.90;;;;;;5110099;28;20200;-66
2024/03/24 08:14:04;;;;;;;3.57;2.07;;;10.50;99.90;;;;;;5111098;27;20198;-67
2024/03/24 08:16:30;;;;;;;4.63;2.50;;;10.50;99.90;;;;;;5109376;28;20272;-67
2024/03/24 08:18:57;;;;;;;6.17;2.40;;;10.50;99.90;;;;;;5111067;28;20200;-67
2024/03/24 08:21:23;;;;;;;2.90;2.07;;;10.40;99.90;;;;;;5110392;27;20284;-67
2024/03/24 08:23:52;;;;;;;6.63;2.33;;;10.50;99.90;;;;;;5110899;28;20274;-67
2024/03/24 08:26:18;;;;;;;3.77;2.00;;;11.20;99.90;;;;;;5111048;28;20271;-67
2024/03/24 08:28:45;;;;;;;3.37;2.13;;;12.00;98.90;;;;;;5110379;28;20219;-66
2024/03/24 08:31:11;;;;;;;6.63;2.10;;;12.30;98.00;;;;;;5103232;28;20252;-66
2024/03/24 08:33:38;;;;;;;4.27;2.23;;;12.90;97.40;;;;;;5103563;28;20246;-66
2024/03/24 08:36:04;;;;;;;3.07;1.80;;;13.70;95.00;;;;;;5109284;28;20556;-67
2024/03/24 08:38:32;;;;;;;5.13;1.90;;;13.60;93.90;;;;;;5109992;28;20198;-66
2024/03/24 08:41:02;;;;;;;5.37;2.30;;;13.70;94.20;;;;;;5110348;28;20275;-68
2024/03/24 08:43:29;;;;;;;5.33;2.07;;;14.50;93.60;;;;;;5100179;28;20589;-66
2024/03/24 08:45:55;;;;;;;4.73;2.20;;;14.50;91.70;;;;;;5108541;28;20248;-67
2024/03/24 08:48:23;;;;;;;3.37;1.87;;;13.80;91.30;;;;;;5091184;28;20193;-66
2024/03/24 08:51:01;;;;;;;8.03;2.47;;;13.60;91.90;;;;;;5097853;28;20686;-66
2024/03/24 08:53:30;;;;;;;4.40;2.03;;;14.20;91.70;;;;;;5104108;28;20689;-66
2024/03/24 08:56:03;;;;;;;5.00;2.00;;;15.20;90.90;;;;;;5112407;28;20185;-66
2024/03/24 08:58:33;;;;;;;2.60;1.83;;;16.40;89.40;;;;;;5091014;28;20227;-68
2024/03/24 09:00:59;;;;;;;3.57;1.97;;;16.50;85.40;;;;;;5109464;28;20198;-67
2024/03/24 09:03:26;;;;;;;3.20;1.90;;;16.60;84.70;;;;;;5108884;28;20637;-66
2024/03/24 09:05:53;;;;;;;3.33;1.77;;;16.40;81.90;;;;;;5104509;28;20553;-67
2024/03/24 09:08:20;;;;;;;8.50;2.20;;;15.90;82.40;;;;;;5102789;28;20192;-67
2024/03/24 09:10:46;;;;;;;5.50;1.87;;;15.10;82.20;;;;;;5117800;28;20199;-67
2024/03/24 09:13:15;;;;;;;3.27;2.07;;;14.60;83.20;;;;;;5090056;28;20208;-66
2024/03/24 09:15:41;;;;;;;2.53;1.87;;;14.60;83.80;;;;;;5093613;28;20790;-67
2024/03/24 09:18:08;;;;;;;5.03;1.97;;;14.20;84.50;;;;;;5113296;28;20190;-66
2024/03/24 09:20:38;;;;;;;2.47;2.00;;;14.20;84.50;;;;;;5107439;28;20635;-67
2024/03/24 09:23:05;;;;;;;5.33;2.17;;;14.30;84.40;;;;;;5085848;28;20194;-67
2024/03/24 09:25:31;;;;;;;3.20;1.97;;;14.40;84.20;;;;;;5103181;28;20226;-67
2024/03/24 09:27:58;;;;;;;3.87;2.57;;;14.40;83.30;;;;;;5090382;28;20220;-66
2024/03/24 09:30:26;;;;;;;4.23;1.77;;;14.20;82.50;;;;;;5111289;28;20203;-66
2024/03/24 09:32:53;;;;;;;5.10;2.17;;;14.70;83.20;;;;;;5112027;28;20262;-66
2024/03/24 09:35:19;;;;;;;3.27;2.00;;;15.30;81.50;;;;;;5103960;28;20186;-66
2024/03/24 09:37:46;;;;;;;5.47;2.27;;;15.30;80.70;;;;;;5109797;27;20186;-66
2024/03/24 09:40:12;;;;;;;5.20;1.83;;;15.60;80.70;;;;;;5107159;27;20205;-66
2024/03/24 09:42:39;;;;;;;3.27;1.70;;;15.60;79.70;;;;;;5107463;27;20187;-66
2024/03/24 09:45:09;;;;;;;4.40;2.03;;;15.00;79.70;;;;;;5104524;27;20306;-67
2024/03/24 09:47:38;;;;;;;3.67;1.70;;;14.80;81.20;;;;;;5111324;27;20557;-66
2024/03/24 09:50:06;;;;;;;1.97;1.47;;;15.70;81.00;;;;;;5112907;28;20199;-65
2024/03/24 09:52:35;;;;;;;2.37;1.60;;;16.90;77.40;;;;;;5109237;28;20754;-65
2024/03/24 09:55:01;;;;;;;4.13;2.20;;;16.80;75.00;;;;;;5110438;27;20188;-66
2024/03/24 09:57:35;;;;;;;3.63;1.90;;;17.40;74.90;;;;;;5109035;28;20191;-65
2024/03/24 10:00:05;;;;;;;2.77;1.57;;;17.90;70.20;;;;;;5106869;28;20205;-66
2024/03/24 10:02:41;;;;;;;4.80;1.57;;;17.70;69.70;;;;;;5113992;27;20204;-65
2024/03/24 10:05:09;;;;;;;2.60;1.80;;;18.00;70.00;;;;;;5113165;27;20194;-65
2024/03/24 10:07:36;;;;;;;3.00;1.70;;;18.20;66.40;;;;;;5090845;28;20195;-66
2024/03/24 10:10:03;;;;;;;3.57;2.00;;;17.50;67.00;;;;;;5112201;28;20200;-66
2024/03/24 10:12:30;;;;;;;3.23;1.97;;;17.00;68.10;;;;;;5132132;27;20207;-66
2024/03/24 10:14:56;;;;;;;3.10;1.77;;;16.90;68.40;;;;;;5095059;28;20232;-65
2024/03/24 10:17:23;;;;;;;2.47;1.50;;;16.20;68.90;;;;;;5111821;27;20276;-65
2024/03/24 10:19:51;;;;;;;2.00;1.43;;;15.60;70.20;;;;;;5114386;27;20202;-65
2024/03/24 10:22:19;;;;;;;2.20;1.70;;;15.10;71.10;;;;;;5118748;27;20184;-66
2024/03/24 10:24:45;;;;;;;3.20;1.70;;;14.60;71.20;;;;;;5107380;27;20540;-66
2024/03/24 10:27:16;;;;;;;2.93;1.53;;;14.30;71.90;;;;;;5112283;28;20650;-66
2024/03/24 10:29:42;;;;;;;2.57;1.93;;;14.10;71.60;;;;;;5111347;27;20199;-66
2024/03/24 10:32:11;;;;;;;3.50;1.40;;;14.00;70.20;;;;;;5107294;27;20203;-65
2024/03/24 10:34:40;;;;;;;3.00;2.00;;;14.10;70.50;;;;;;5109463;27;20191;-64
2024/03/24 10:37:11;;;;;;;1.93;1.67;;;13.90;71.00;;;;;;5113985;27;20185;-66
2024/03/24 10:39:38;;;;;;;4.23;2.10;;;13.70;72.20;;;;;;5108406;27;20259;-67
2024/03/24 10:42:09;;;;;;;4.57;1.73;;;13.80;72.80;;;;;;5113966;27;20672;-65
2024/03/24 10:44:36;;;;;;;4.23;2.57;;;13.80;73.50;;;;;;5111618;27;20194;-66
2024/03/24 10:47:04;;;;;;;2.80;1.80;;;14.10;72.30;;;;;;5111449;28;20597;-66
2024/03/24 10:49:34;;;;;;;3.33;2.03;;;13.80;72.70;;;;;;5111956;28;20588;-67
2024/03/24 10:52:05;;;;;;;4.70;1.93;;;14.00;73.90;;;;;;5112047;28;20277;-66
2024/03/24 10:54:34;;;;;;;2.73;1.80;;;15.10;73.20;;;;;;5111757;28;20273;-66
2024/03/24 10:57:07;;;;;;;1.93;1.57;;;15.50;71.30;;;;;;5112706;27;20687;-66
2024/03/24 10:59:34;;;;;;;3.07;1.67;;;15.20;70.50;;;;;;5111269;28;20195;-66
2024/03/24 11:02:01;;;;;;;2.97;1.90;;;14.60;71.20;;;;;;5111498;28;20257;-66
2024/03/24 11:04:29;;;;;;;2.63;1.93;;;14.20;72.90;;;;;;5111361;28;20605;-65
2024/03/24 11:06:58;;;;;;;7.00;2.47;;;14.30;73.20;;;;;;5111948;28;20202;-65
2024/03/24 11:09:24;;;;;;;3.00;2.00;;;15.80;72.40;;;;;;5105601;28;20224;-66
2024/03/24 11:11:53;;;;;;;6.17;1.90;;;16.50;70.30;;;;;;5112219;28;20646;-66
2024/03/24 11:14:21;;;;;;;5.23;1.93;;;15.90;67.40;;;;;;5111225;28;20766;-65
2024/03/24 11:16:48;;;;;;;5.10;2.03;;;15.20;67.50;;;;;;5111017;28;20799;-65
2024/03/24 11:19:15;;;;;;;4.37;2.20;;;14.60;69.10;;;;;;5112316;28;20196;-65
2024/03/24 11:21:49;;;;;;;4.73;1.90;;;14.20;70.20;;;;;;5112774;28;20740;-66
2024/03/24 11:24:24;;;;;;;2.43;1.90;;;13.90;71.00;;;;;;5104000;28;20186;-65
2024/03/24 11:26:52;;;;;;;3.43;1.80;;;14.00;71.20;;;;;;5114007;28;20641;-67
2024/03/24 11:29:53;;;;;;;4.57;1.63;;;13.90;71.00;;;;;;5097308;27;20232;-65
2024/03/24 11:32:44;;;;;;;3.07;1.80;;;13.60;71.40;;;;;;5096593;27;20203;-66
2024/03/24 11:35:11;;;;;;;5.67;2.23;;;13.30;72.00;;;;;;5108500;28;20191;-66
2024/03/24 11:37:46;;;;;;;2.33;1.67;;;13.30;71.90;;;;;;5114283;27;20193;-67
2024/03/24 11:40:14;;;;;;;4.07;1.90;;;13.40;72.00;;;;;;5116003;27;20286;-66
2024/03/24 11:42:42;;;;;;;2.90;1.80;;;13.10;71.20;;;;;;5103970;27;20186;-66
2024/03/24 11:45:27;;;;;;;3.23;1.90;;;12.90;71.00;;;;;;5107592;28;20189;-66
2024/03/24 11:48:14;;;;;;;6.73;2.40;;;13.00;71.30;;;;;;5106882;28;20189;-66
2024/03/24 11:50:41;;;;;;;3.63;1.87;;;14.70;70.50;;;;;;5110586;28;20271;-67
2024/03/24 11:53:09;;;;;;;4.13;1.83;;;16.00;67.70;;;;;;5113318;27;20218;-66
2024/03/24 11:55:35;;;;;;;2.43;1.60;;;16.90;65.30;;;;;;5108150;28;20203;-67
2024/03/24 11:58:05;;;;;;;2.17;1.60;;;17.60;62.20;;;;;;5108310;28;20196;-67
2024/03/24 12:00:32;;;;;;;1.63;1.33;;;18.70;60.50;;;;;;5107340;28;20215;-67
2024/03/24 12:02:59;;;;;;;1.67;1.40;;;19.90;59.40;;;;;;5087536;28;20191;-67
2024/03/24 12:05:27;;;;;;;3.35;2.13;;;20.80;57.00;;;;;;5128454;27;20203;-66
2024/03/24 12:07:57;;;;;;;3.25;1.60;;;21.60;54.10;;;;;;5109569;28;20180;-67
2024/03/24 12:10:26;;;;;;;3.55;1.85;;;21.80;51.30;;;;;;5095907;28;20202;-67
2024/03/24 12:12:55;;;;;;;2.95;1.65;;;22.10;50.80;;;;;;5077497;28;20829;-68
2024/03/24 12:15:22;;;;;;;2.17;1.70;;;22.70;49.60;;;;;;5104268;28;20715;-66
2024/03/24 12:17:49;;;;;;;4.30;1.80;;;22.60;48.80;;;;;;5102213;28;20664;-67
2024/03/24 12:20:18;;;;;;;4.60;1.42;;;22.60;48.30;;;;;;5104583;28;20203;-68
2024/03/24 12:22:45;;;;;;;2.65;1.83;;;23.00;46.60;;;;;;5110371;28;20225;-67
2024/03/24 12:25:13;;;;;;;3.58;1.80;;;23.20;45.10;;;;;;5107970;28;20230;-67
2024/03/24 12:27:40;;;;;;;3.10;1.95;;;22.40;45.20;;;;;;5089073;28;20187;-64
2024/03/24 12:30:07;;;;;;;2.15;1.70;;;22.50;45.90;;;;;;5105891;28;20487;-67
2024/03/24 12:32:36;;;;;;;2.75;1.30;;;22.90;45.40;;;;;;5109784;28;20196;-67
2024/03/24 12:35:04;;;;;;;1.50;1.40;;;23.20;44.60;;;;;;5104600;28;20588;-66
2024/03/24 12:37:31;;;;;;;1.33;1.23;;;23.30;43.50;;;;;;5106928;28;20194;-67
2024/03/24 12:39:57;;;;;;;2.28;1.60;;;22.30;43.20;;;;;;5109844;28;20200;-67
2024/03/24 12:42:25;;;;;;;4.10;1.80;;;21.40;44.40;;;;;;5110486;28;20191;-66
2024/03/24 12:44:51;;;;;;;2.63;1.60;;;20.40;44.70;;;;;;5109849;28;20703;-66
2024/03/24 12:47:19;;;;;;;8.45;1.75;;;19.40;45.70;;;;;;5115880;28;20617;-66
2024/03/24 12:49:49;;;;;;;1.98;1.80;;;19.00;46.20;;;;;;5093760;28;20231;-67
2024/03/24 12:52:16;;;;;;;5.30;1.70;;;18.80;46.50;;;;;;5110726;28;20191;-67
2024/03/24 12:54:43;;;;;;;2.47;1.52;;;18.30;47.20;;;;;;5107352;28;20307;-66